Time;durP1;ratioP1;P1;durP2;ratioP2;P2;SDS_P1;SDS_P2;PMS_P1;PMS_P2;Temp;Humidity;BMP_temperature;BMP_pressure;BME280_temperature;BME280_humidity;BME280_pressure;Samples;Min_cycle;Max_cycle;Signal;HPM_P1;HPM_P2
2022/07/02 00:02:17;;;;;;;24.47;12.87;;;;;;;19.16;100.00;100029.34;4200409;28;20811;-47
2022/07/02 00:04:47;;;;;;;16.23;12.20;;;;;;;19.20;100.00;100030.59;4195506;28;20792;-47
2022/07/02 00:07:14;;;;;;;19.07;13.40;;;;;;;19.21;100.00;100034.94;4193920;28;20287;-50
2022/07/02 00:09:41;;;;;;;23.23;13.80;;;;;;;19.32;100.00;100052.34;4204748;28;20279;-46
2022/07/02 00:12:10;;;;;;;22.20;13.37;;;;;;;19.39;100.00;100051.28;4200709;28;20232;-47
2022/07/02 00:14:37;;;;;;;21.07;13.50;;;;;;;19.40;100.00;100055.63;4196911;28;20238;-50
2022/07/02 00:17:04;;;;;;;24.03;13.90;;;;;;;19.33;100.00;100048.59;4206755;28;20272;-50
2022/07/02 00:19:32;;;;;;;20.33;13.00;;;;;;;19.34;100.00;100055.66;4207672;28;20237;-48
2022/07/02 00:22:01;;;;;;;24.07;14.57;;;;;;;19.36;100.00;100054.41;4178217;28;20391;-47
2022/07/02 00:24:28;;;;;;;21.60;14.70;;;;;;;19.42;100.00;100078.88;4198358;28;21540;-49
2022/07/02 00:26:57;;;;;;;21.53;14.50;;;;;;;19.46;100.00;100101.72;4206510;28;21404;-51
2022/07/02 00:29:38;;;;;;;24.30;15.53;;;;;;;19.48;100.00;100081.56;4200926;28;20239;-48
2022/07/02 00:32:05;;;;;;;22.40;15.03;;;;;;;19.52;100.00;100063.06;4199268;28;20579;-47
2022/07/02 00:34:37;;;;;;;27.17;15.87;;;;;;;19.60;100.00;100054.75;4204915;28;20239;-68
2022/07/02 00:37:08;;;;;;;26.27;17.10;;;;;;;19.57;100.00;100038.94;4202442;28;20280;-68
2022/07/02 00:39:35;;;;;;;24.70;17.67;;;;;;;19.50;100.00;100030.91;4200997;28;20232;-70
2022/07/02 00:42:04;;;;;;;24.53;17.03;;;;;;;19.49;100.00;99998.72;4197015;28;20235;-69
2022/07/02 00:44:31;;;;;;;26.30;17.90;;;;;;;19.40;100.00;99990.84;4206658;28;20237;-69
2022/07/02 00:47:04;;;;;;;26.60;18.50;;;;;;;19.43;100.00;99994.16;4178741;28;20241;-68
2022/07/02 00:49:33;;;;;;;25.77;18.50;;;;;;;19.36;100.00;100010.38;4192820;28;20224;-70
2022/07/02 00:52:00;;;;;;;29.93;19.30;;;;;;;19.33;100.00;100000.03;4213141;28;20334;-68
2022/07/02 00:54:27;;;;;;;29.60;20.73;;;;;;;19.36;100.00;100016.63;4199604;28;20254;-68
2022/07/02 00:56:54;;;;;;;27.57;19.13;;;;;;;19.49;100.00;100055.41;4199375;28;20233;-69
2022/07/02 00:59:24;;;;;;;32.67;21.00;;;;;;;19.57;100.00;100088.38;4182811;28;20225;-69
2022/07/02 01:01:51;;;;;;;29.37;20.53;;;;;;;19.59;100.00;100086.28;4195204;28;20307;-68
2022/07/02 01:04:18;;;;;;;31.13;21.13;;;;;;;19.66;100.00;100088.13;4182695;28;20229;-69
2022/07/02 01:06:45;;;;;;;30.37;21.60;;;;;;;19.73;100.00;100086.28;4180233;28;20238;-68
2022/07/02 01:12:00;;;;;;;28.40;22.43;;;;;;;19.80;100.00;100066.28;4194878;28;20269;-67
2022/07/02 01:14:28;;;;;;;34.87;23.03;;;;;;;19.84;100.00;100076.69;4190490;28;22171;-67
2022/07/02 01:16:55;;;;;;;38.17;24.07;;;;;;;19.87;100.00;100076.25;4188044;28;20237;-68
2022/07/02 01:19:23;;;;;;;41.37;24.43;;;;;;;19.84;100.00;100068.59;4191511;28;22882;-69
2022/07/02 01:22:12;;;;;;;31.73;24.10;;;;;;;19.85;100.00;100062.94;4188693;28;21747;-71
2022/07/02 01:24:40;;;;;;;36.40;24.77;;;;;;;19.89;100.00;100066.88;4182348;28;20237;-67
2022/07/02 01:27:07;;;;;;;34.60;24.87;;;;;;;19.96;100.00;100083.06;4203368;28;22121;-68
2022/07/02 01:29:34;;;;;;;42.93;29.60;;;;;;;19.97;100.00;100087.41;4185316;28;20533;-67
2022/07/02 01:32:00;;;;;;;47.73;32.03;;;;;;;20.03;100.00;100091.97;4192838;28;20555;-68
2022/07/02 01:34:27;;;;;;;46.80;32.03;;;;;;;20.01;100.00;100085.94;4175933;28;20241;-67
2022/07/02 01:36:54;;;;;;;51.97;32.40;;;;;;;19.99;100.00;100075.38;4199764;28;21314;-69
2022/07/02 01:39:24;;;;;;;52.37;33.73;;;;;;;19.97;100.00;100068.50;4195199;28;21265;-68
2022/07/02 01:41:51;;;;;;;53.00;36.80;;;;;;;20.02;100.00;100080.34;4183335;28;22807;-67
2022/07/02 01:44:17;;;;;;;61.83;38.37;;;;;;;19.98;100.00;100075.56;4189277;28;21388;-69
2022/07/02 01:46:45;;;;;;;52.33;37.47;;;;;;;19.89;100.00;100075.00;4190578;28;20233;-67
2022/07/02 01:49:11;;;;;;;54.93;35.83;;;;;;;19.96;100.00;100081.19;4194782;28;26999;-67
2022/07/02 01:51:39;;;;;;;55.87;36.83;;;;;;;19.96;100.00;100069.56;4217233;28;20304;-68
2022/07/02 01:54:07;;;;;;;55.37;37.60;;;;;;;19.93;100.00;100080.81;4180702;28;20486;-45
2022/07/02 01:56:34;;;;;;;57.00;36.80;;;;;;;20.00;100.00;100104.03;4189411;28;20752;-45
2022/07/02 01:59:01;;;;;;;56.30;38.17;;;;;;;20.07;100.00;100113.97;4207818;28;22176;-68
2022/07/02 02:01:28;;;;;;;48.80;32.90;;;;;;;20.16;100.00;100118.91;4197892;28;20243;-68
2022/07/02 02:03:54;;;;;;;49.13;33.07;;;;;;;20.18;100.00;100133.03;4206683;28;20236;-67
2022/07/02 02:06:21;;;;;;;52.10;36.20;;;;;;;20.11;100.00;100131.41;4207301;28;20288;-69
2022/07/02 02:08:48;;;;;;;51.53;34.33;;;;;;;20.10;100.00;100135.97;4203659;28;20233;-66
2022/07/02 02:11:15;;;;;;;53.83;36.90;;;;;;;20.14;100.00;100144.50;4203224;28;21679;-69
2022/07/02 02:13:41;;;;;;;48.67;31.50;;;;;;;20.21;100.00;100146.13;4197644;28;20240;-68
2022/07/02 02:16:08;;;;;;;52.87;33.93;;;;;;;20.19;100.00;100142.78;4199533;28;20307;-68
2022/07/02 02:18:34;;;;;;;49.93;34.50;;;;;;;20.13;100.00;100137.41;4199708;28;21871;-67
2022/07/02 02:21:01;;;;;;;54.77;34.23;;;;;;;20.10;100.00;100135.16;4204546;28;20232;-67
2022/07/02 02:23:27;;;;;;;51.00;35.33;;;;;;;20.04;100.00;100131.44;4202224;28;20366;-67
2022/07/02 02:25:54;;;;;;;57.70;36.83;;;;;;;20.01;100.00;100126.47;4207740;28;21818;-67
2022/07/02 02:28:22;;;;;;;48.73;32.70;;;;;;;20.05;100.00;100127.69;4207119;28;20247;-68
2022/07/02 02:30:49;;;;;;;47.67;31.57;;;;;;;20.09;100.00;100138.88;4205678;28;24174;-68
2022/07/02 02:33:15;;;;;;;50.80;33.50;;;;;;;20.05;100.00;100143.91;4213602;28;20331;-67
2022/07/02 02:35:42;;;;;;;57.03;34.40;;;;;;;20.05;100.00;100134.97;4206387;28;20232;-70
2022/07/02 02:38:08;;;;;;;50.57;33.03;;;;;;;20.02;100.00;100150.56;4203606;28;20248;-66
2022/07/02 02:40:35;;;;;;;47.57;31.80;;;;;;;19.98;100.00;100153.91;4193420;28;20313;-69
2022/07/02 02:43:01;;;;;;;49.97;31.77;;;;;;;19.98;100.00;100154.72;4197797;28;20304;-68
2022/07/02 02:45:28;;;;;;;53.30;33.33;;;;;;;20.08;100.00;100153.44;4206411;28;20241;-68
2022/07/02 02:47:54;;;;;;;45.70;32.47;;;;;;;20.07;100.00;100155.31;4193222;28;20335;-66
2022/07/02 02:50:21;;;;;;;46.97;33.13;;;;;;;20.07;100.00;100157.22;4194071;28;21361;-69
2022/07/02 02:52:48;;;;;;;59.33;34.03;;;;;;;20.04;100.00;100153.03;4187676;28;21114;-67
2022/07/02 02:55:14;;;;;;;48.17;32.50;;;;;;;20.08;100.00;100142.66;4197504;28;20228;-66
2022/07/02 02:57:42;;;;;;;44.20;30.07;;;;;;;20.10;100.00;100130.56;4206382;28;20303;-70
2022/07/02 03:00:09;;;;;;;48.93;32.27;;;;;;;20.14;100.00;100118.31;4198588;28;20240;-69
2022/07/02 03:02:36;;;;;;;47.10;32.40;;;;;;;20.08;100.00;100121.84;4206503;28;20303;-68
2022/07/02 03:05:02;;;;;;;47.27;32.73;;;;;;;20.06;100.00;100113.13;4212951;28;20433;-69
2022/07/02 03:07:29;;;;;;;46.70;32.43;;;;;;;20.02;100.00;100101.13;4200827;28;20271;-67
2022/07/02 03:09:55;;;;;;;55.53;33.97;;;;;;;20.03;100.00;100097.38;4210974;28;20249;-67
2022/07/02 03:12:24;;;;;;;54.57;33.97;;;;;;;20.00;100.00;100093.22;4200353;28;20240;-68
2022/07/02 03:14:50;;;;;;;46.67;30.63;;;;;;;20.05;100.00;100081.78;4194220;28;23654;-68
2022/07/02 03:17:17;;;;;;;47.07;31.53;;;;;;;20.06;100.00;100085.28;4206191;28;25851;-66
2022/07/02 03:19:45;;;;;;;51.00;32.50;;;;;;;20.07;100.00;100092.38;4205325;28;20317;-69
2022/07/02 03:22:12;;;;;;;60.23;35.27;;;;;;;20.07;100.00;100095.91;4195635;28;20233;-68
2022/07/02 03:24:39;;;;;;;52.93;34.93;;;;;;;19.94;100.00;100110.28;4179161;28;20245;-68
2022/07/02 03:27:06;;;;;;;57.23;35.00;;;;;;;19.84;100.00;100123.41;4196576;28;23605;-67
2022/07/02 03:29:33;;;;;;;55.03;33.93;;;;;;;19.82;100.00;100126.31;4193417;28;20647;-70
2022/07/02 03:32:00;;;;;;;57.63;33.60;;;;;;;19.77;100.00;100118.03;4204262;28;20272;-67
2022/07/02 03:34:26;;;;;;;43.77;31.13;;;;;;;19.71;100.00;100104.56;4194091;28;20321;-66
2022/07/02 03:36:53;;;;;;;46.10;28.83;;;;;;;19.57;100.00;100120.78;4195862;28;20245;-68
2022/07/02 03:39:19;;;;;;;43.60;28.03;;;;;;;19.40;100.00;100120.38;4204024;28;20244;-68
2022/07/02 03:41:46;;;;;;;42.23;27.40;;;;;;;19.32;100.00;100115.22;4189524;28;23177;-67
2022/07/02 03:44:12;;;;;;;40.00;25.67;;;;;;;19.33;100.00;100124.13;4193412;28;20236;-68
2022/07/02 03:46:39;;;;;;;44.17;26.33;;;;;;;19.25;100.00;100144.06;4195700;28;20574;-67
2022/07/02 03:49:06;;;;;;;38.97;24.87;;;;;;;19.33;100.00;100156.50;4216272;28;20229;-69
2022/07/02 03:51:32;;;;;;;43.87;26.17;;;;;;;19.28;100.00;100157.13;4205461;28;20235;-67
2022/07/02 03:53:59;;;;;;;40.00;24.67;;;;;;;19.23;100.00;100161.50;4203092;28;20410;-68
2022/07/02 03:56:25;;;;;;;39.17;23.67;;;;;;;19.16;100.00;100164.22;4220385;28;20238;-67
2022/07/02 03:58:52;;;;;;;45.10;23.07;;;;;;;19.17;100.00;100173.94;4203839;28;20394;-68
2022/07/02 04:01:18;;;;;;;40.03;23.17;;;;;;;19.14;100.00;100177.91;4186279;28;22056;-68
2022/07/02 04:03:45;;;;;;;37.27;24.30;;;;;;;19.16;100.00;100172.31;4215568;28;23004;-68
2022/07/02 04:06:12;;;;;;;39.13;22.80;;;;;;;19.18;100.00;100175.63;4208642;28;20236;-68
2022/07/02 04:08:39;;;;;;;36.07;23.23;;;;;;;19.18;100.00;100170.22;4203737;28;20244;-67
2022/07/02 04:11:05;;;;;;;38.23;25.07;;;;;;;19.24;100.00;100165.88;4203005;28;22006;-66
2022/07/02 04:13:32;;;;;;;40.80;26.23;;;;;;;19.18;100.00;100172.94;4194971;28;24064;-67
2022/07/02 04:15:59;;;;;;;49.00;30.73;;;;;;;19.10;100.00;100165.03;4181295;28;20942;-70
2022/07/02 04:18:25;;;;;;;46.47;29.57;;;;;;;19.10;100.00;100173.13;4210999;28;22089;-66
2022/07/02 04:20:52;;;;;;;49.50;30.40;;;;;;;19.10;100.00;100173.13;4205011;28;20229;-65
2022/07/02 04:23:19;;;;;;;50.13;26.77;;;;;;;18.97;100.00;100174.78;4197153;28;20245;-69
2022/07/02 04:25:45;;;;;;;50.83;25.90;;;;;;;18.85;100.00;100181.84;4204049;28;21339;-68
2022/07/02 04:28:12;;;;;;;52.37;25.33;;;;;;;18.70;100.00;100168.47;4191385;28;20805;-67
2022/07/02 04:30:39;;;;;;;55.80;25.90;;;;;;;18.68;100.00;100167.88;4195325;28;20554;-68
2022/07/02 04:33:05;;;;;;;51.20;23.80;;;;;;;18.76;100.00;100159.63;4187840;28;22861;-67
2022/07/02 04:35:32;;;;;;;51.67;22.27;;;;;;;18.82;100.00;100176.00;4195009;28;22486;-67
2022/07/02 04:37:58;;;;;;;53.60;23.90;;;;;;;18.91;100.00;100186.38;4196112;28;20687;-66
2022/07/02 04:40:25;;;;;;;57.53;22.40;;;;;;;18.94;100.00;100185.13;4167539;28;20236;-69
2022/07/02 04:42:51;;;;;;;42.47;19.23;;;;;;;18.92;100.00;100193.44;4184263;28;20237;-69
2022/07/02 04:45:18;;;;;;;47.83;21.33;;;;;;;18.91;100.00;100189.06;4198652;28;21551;-67
2022/07/02 04:47:45;;;;;;;41.70;18.73;;;;;;;18.89;100.00;100199.22;4204112;28;20244;-67
2022/07/02 04:50:11;;;;;;;39.43;17.80;;;;;;;18.84;100.00;100204.41;4204332;28;20632;-68
2022/07/02 04:52:39;;;;;;;35.00;17.10;;;;;;;18.80;100.00;100208.59;4207024;28;20303;-68
2022/07/02 04:55:05;;;;;;;34.27;16.27;;;;;;;18.81;100.00;100217.50;4194955;28;20232;-67
2022/07/02 04:57:32;;;;;;;34.57;14.67;;;;;;;18.79;100.00;100225.78;4214239;28;21196;-67
2022/07/02 04:59:59;;;;;;;21.93;13.03;;;;;;;18.79;100.00;100230.34;4300265;28;20820;-67
2022/07/02 05:02:26;;;;;;;22.17;13.23;;;;;;;18.77;100.00;100244.84;4180970;28;20238;-69
2022/07/02 05:04:52;;;;;;;26.23;12.83;;;;;;;18.62;100.00;100236.06;4207617;28;21223;-67
2022/07/02 05:07:19;;;;;;;19.43;11.60;;;;;;;18.60;100.00;100240.00;4241207;28;21088;-67
2022/07/02 05:09:50;;;;;;;20.80;11.63;;;;;;;18.47;100.00;100246.16;4234374;28;20340;-67
2022/07/02 05:12:17;;;;;;;20.33;12.27;;;;;;;18.47;100.00;100251.56;4194945;28;21190;-68
2022/07/02 05:14:43;;;;;;;21.30;12.10;;;;;;;18.49;100.00;100244.94;4213038;28;20389;-69
2022/07/02 05:17:10;;;;;;;18.20;11.77;;;;;;;18.52;100.00;100252.63;4217575;28;20240;-70
2022/07/02 05:19:36;;;;;;;22.67;12.27;;;;;;;18.59;100.00;100262.59;4203430;28;21715;-68
2022/07/02 05:22:04;;;;;;;17.07;11.67;;;;;;;18.65;100.00;100261.78;4193278;28;20257;-68
2022/07/02 05:24:30;;;;;;;17.30;11.37;;;;;;;18.58;100.00;100271.72;4220115;28;20320;-67
2022/07/02 05:26:57;;;;;;;18.67;12.17;;;;;;;18.61;100.00;100271.31;4213668;28;20248;-68
2022/07/02 05:29:23;;;;;;;17.07;11.93;;;;;;;18.69;100.00;100258.47;4189876;28;20233;-69
2022/07/02 05:31:50;;;;;;;21.50;12.07;;;;;;;18.81;100.00;100260.63;4187974;28;21134;-67
2022/07/02 05:34:17;;;;;;;21.80;11.83;;;;;;;19.05;100.00;100267.31;4211730;28;25503;-67
2022/07/02 05:36:43;;;;;;;20.10;11.80;;;;;;;19.22;100.00;100268.56;4202462;28;20282;-66
2022/07/02 05:39:10;;;;;;;19.20;11.67;;;;;;;19.16;100.00;100277.50;4199773;28;20256;-45
2022/07/02 05:41:36;;;;;;;22.33;11.43;;;;;;;19.14;100.00;100287.66;4202844;28;20263;-48
2022/07/02 05:44:03;;;;;;;17.57;11.60;;;;;;;19.12;100.00;100290.56;4207545;28;23437;-50
2022/07/02 05:46:30;;;;;;;20.07;11.77;;;;;;;19.06;100.00;100286.00;4192832;28;20748;-49
2022/07/02 05:48:56;;;;;;;16.97;12.33;;;;;;;19.13;100.00;100296.81;4178690;28;20236;-51
2022/07/02 05:51:23;;;;;;;21.47;12.63;;;;;;;19.10;100.00;100302.59;4198023;28;20533;-53
2022/07/02 05:53:49;;;;;;;21.00;12.50;;;;;;;19.00;100.00;100296.78;4209197;28;20235;-71
2022/07/02 05:56:16;;;;;;;18.43;12.43;;;;;;;18.94;100.00;100301.09;4187706;28;20229;-71
2022/07/02 05:58:43;;;;;;;18.87;13.33;;;;;;;18.86;100.00;100295.91;4205773;28;21095;-69
2022/07/02 06:01:10;;;;;;;23.53;14.23;;;;;;;18.79;100.00;100295.88;4188196;28;25712;-70
2022/07/02 06:03:36;;;;;;;24.00;13.07;;;;;;;18.84;100.00;100288.00;4186990;28;20233;-65
2022/07/02 06:08:48;;;;;;;25.90;14.00;;;;;;;18.98;100.00;100289.69;4184219;28;20247;-65
2022/07/02 06:11:15;;;;;;;22.00;13.83;;;;;;;19.01;100.00;100288.47;4173071;28;20233;-66
2022/07/02 06:13:42;;;;;;;27.33;14.73;;;;;;;18.95;100.00;100295.50;4201682;28;20287;-67
2022/07/02 06:16:08;;;;;;;26.47;15.43;;;;;;;18.91;100.00;100296.94;4194160;28;20426;-48
2022/07/02 06:18:35;;;;;;;20.03;13.50;;;;;;;18.94;100.00;100293.00;4192265;28;20241;-52
2022/07/02 06:21:01;;;;;;;18.50;11.97;;;;;;;19.11;100.00;100299.69;4181904;28;20284;-47
2022/07/02 06:23:28;;;;;;;19.10;12.30;;;;;;;19.12;100.00;100303.22;4193377;28;20244;-48
2022/07/02 06:25:54;;;;;;;20.43;11.70;;;;;;;19.12;100.00;100305.91;4189427;28;20236;-47
2022/07/02 06:28:21;;;;;;;19.30;11.10;;;;;;;19.13;100.00;100307.59;4181659;28;21911;-46
2022/07/02 06:30:48;;;;;;;17.33;10.77;;;;;;;19.13;100.00;100319.22;4191222;28;20233;-49
2022/07/02 06:33:14;;;;;;;14.40;10.70;;;;;;;19.15;100.00;100321.69;4182913;28;20320;-50
2022/07/02 06:35:42;;;;;;;13.40;10.10;;;;;;;19.18;100.00;100324.81;4196048;28;20251;-50
2022/07/02 06:38:11;;;;;;;18.40;9.50;;;;;;;19.17;100.00;100333.97;4185119;28;20233;-48
2022/07/02 06:40:38;;;;;;;14.10;8.30;;;;;;;19.19;100.00;100339.97;4188008;28;21944;-46
2022/07/02 06:43:05;;;;;;;12.87;9.23;;;;;;;19.26;100.00;100345.38;4179200;28;20835;-47
2022/07/02 06:45:32;;;;;;;13.60;9.37;;;;;;;19.43;100.00;100350.38;4194669;28;25268;-48
2022/07/02 06:47:58;;;;;;;19.33;9.07;;;;;;;19.44;100.00;100357.47;4187403;28;20316;-49
2022/07/02 06:50:25;;;;;;;15.90;8.80;;;;;;;19.30;100.00;100357.44;4190206;28;20284;-50
2022/07/02 06:52:54;;;;;;;13.87;7.90;;;;;;;19.35;100.00;100360.34;4197577;28;20227;-46
2022/07/02 06:55:21;;;;;;;11.17;6.30;;;;;;;19.15;100.00;100364.84;4200606;28;20243;-50
2022/07/02 06:57:49;;;;;;;6.90;4.80;;;;;;;19.07;100.00;100368.56;4232526;28;20244;-47
2022/07/02 07:00:16;;;;;;;12.67;5.70;;;;;;;19.05;100.00;100372.50;4213972;28;20236;-48
2022/07/02 07:02:43;;;;;;;8.67;5.10;;;;;;;19.05;100.00;100375.19;4223514;28;20224;-47
2022/07/02 07:05:09;;;;;;;8.77;4.80;;;;;;;18.92;100.00;100387.59;4214446;28;20345;-49
2022/07/02 07:07:36;;;;;;;14.77;4.83;;;;;;;18.95;100.00;100380.97;4206456;28;20237;-46
2022/07/02 07:10:03;;;;;;;7.90;4.53;;;;;;;18.94;100.00;100388.25;4212994;28;20819;-48
2022/07/02 07:12:30;;;;;;;7.80;5.47;;;;;;;18.97;100.00;100393.22;4212359;28;20240;-50
2022/07/02 07:15:00;;;;;;;10.03;6.97;;;;;;;19.03;100.00;100398.84;4212771;28;20826;-49
2022/07/02 07:17:27;;;;;;;12.73;8.13;;;;;;;18.91;100.00;100399.41;4204333;28;20369;-47
2022/07/02 07:19:53;;;;;;;15.70;9.83;;;;;;;18.87;100.00;100419.75;4211691;28;22054;-47
2022/07/02 07:22:20;;;;;;;13.63;9.60;;;;;;;18.86;100.00;100419.94;4205698;28;20260;-49
2022/07/02 07:24:46;;;;;;;13.77;10.43;;;;;;;18.81;100.00;100420.53;4202209;28;20356;-51
2022/07/02 07:27:13;;;;;;;20.03;11.60;;;;;;;18.81;100.00;100423.22;4190451;28;20545;-47
2022/07/02 07:29:39;;;;;;;16.77;8.87;;;;;;;18.83;100.00;100426.56;4192700;28;21070;-50
2022/07/02 07:32:06;;;;;;;16.73;9.73;;;;;;;18.82;100.00;100430.25;4248871;28;20234;-51
2022/07/02 07:34:39;;;;;;;13.93;9.60;;;;;;;18.74;100.00;100430.41;4219401;28;25848;-47
2022/07/02 07:37:06;;;;;;;15.90;11.40;;;;;;;18.65;100.00;100439.69;4205382;28;20225;-48
2022/07/02 07:39:33;;;;;;;17.53;11.23;;;;;;;18.68;100.00;100439.28;4217155;28;20243;-64
2022/07/02 07:41:59;;;;;;;18.13;12.03;;;;;;;18.65;100.00;100435.13;4201240;28;20275;-66
2022/07/02 07:44:26;;;;;;;19.17;11.23;;;;;;;18.70;100.00;100438.03;4198773;28;23010;-66
2022/07/02 07:46:52;;;;;;;16.77;10.60;;;;;;;18.65;100.00;100445.06;4203198;28;20229;-66
2022/07/02 07:49:19;;;;;;;17.00;10.83;;;;;;;18.57;100.00;100437.97;4200761;28;23585;-64
2022/07/02 07:51:46;;;;;;;15.90;10.90;;;;;;;18.62;100.00;100450.88;4221693;28;21627;-66
2022/07/02 07:54:12;;;;;;;15.27;10.07;;;;;;;18.71;100.00;100449.69;4244213;28;20367;-65
2022/07/02 07:56:41;;;;;;;16.40;10.87;;;;;;;18.67;100.00;100457.31;4184899;28;20260;-65
2022/07/02 07:59:08;;;;;;;20.73;11.83;;;;;;;18.69;100.00;100457.13;4187401;28;20884;-67
2022/07/02 08:01:35;;;;;;;14.73;11.33;;;;;;;18.76;100.00;100471.47;4189063;28;20238;-69
2022/07/02 08:04:01;;;;;;;16.03;10.83;;;;;;;18.74;100.00;100468.97;4186555;28;20288;-69
2022/07/02 08:06:28;;;;;;;22.00;11.07;;;;;;;18.77;100.00;100479.38;4168054;28;25663;-69
2022/07/02 08:08:55;;;;;;;21.17;11.03;;;;;;;18.76;100.00;100479.56;4193345;28;20446;-67
2022/07/02 08:11:22;;;;;;;17.57;10.90;;;;;;;18.68;100.00;100477.00;4190520;28;20230;-68
2022/07/02 08:13:48;;;;;;;14.70;10.50;;;;;;;18.71;100.00;100477.47;4219308;28;21132;-66
2022/07/02 08:16:15;;;;;;;15.37;10.57;;;;;;;18.69;100.00;100490.31;4193078;28;25504;-71
2022/07/02 08:18:43;;;;;;;20.30;11.33;;;;;;;18.78;100.00;100488.34;4205267;28;23533;-65
2022/07/02 08:21:09;;;;;;;15.53;11.47;;;;;;;18.74;100.00;100487.03;4191482;28;20242;-71
2022/07/02 08:23:36;;;;;;;17.80;11.93;;;;;;;18.73;100.00;100480.81;4215464;28;20599;-69
2022/07/02 08:26:02;;;;;;;20.13;13.20;;;;;;;18.82;100.00;100486.88;4199550;28;20295;-70
2022/07/02 08:28:29;;;;;;;20.63;11.87;;;;;;;18.79;100.00;100489.97;4181217;28;20466;-67
2022/07/02 08:30:56;;;;;;;19.03;11.13;;;;;;;18.74;100.00;100492.41;4187886;28;21168;-66
2022/07/02 08:33:22;;;;;;;20.23;11.13;;;;;;;18.74;100.00;100487.84;4190321;28;22664;-65
2022/07/02 08:35:49;;;;;;;19.40;11.37;;;;;;;18.86;100.00;100485.47;4180636;28;20237;-68
2022/07/02 08:38:15;;;;;;;18.13;11.47;;;;;;;19.07;100.00;100489.13;4183871;28;20229;-67
2022/07/02 08:40:44;;;;;;;17.80;10.43;;;;;;;19.02;100.00;100487.03;4181507;28;20233;-64
2022/07/02 08:43:12;;;;;;;17.53;11.10;;;;;;;18.94;100.00;100495.25;4177933;28;20239;-65
2022/07/02 08:45:43;;;;;;;18.53;12.63;;;;;;;18.93;100.00;100501.69;4165973;28;20256;-64
2022/07/02 08:48:11;;;;;;;20.03;12.07;;;;;;;18.93;100.00;100499.81;4184647;28;21007;-65
2022/07/02 08:50:41;;;;;;;17.20;11.97;;;;;;;18.94;100.00;100503.34;4177815;28;20233;-64
2022/07/02 08:53:08;;;;;;;16.33;11.00;;;;;;;18.86;100.00;100498.94;4186841;28;20233;-65
2022/07/02 08:55:35;;;;;;;18.00;11.67;;;;;;;18.77;100.00;100497.44;4178508;28;20419;-67
2022/07/02 08:58:02;;;;;;;25.13;15.37;;;;;;;18.73;100.00;100488.91;4208019;28;20345;-66
2022/07/02 09:00:29;;;;;;;19.70;12.97;;;;;;;18.70;100.00;100491.13;4218435;28;20320;-66
2022/07/02 09:02:58;;;;;;;16.67;12.27;;;;;;;18.74;100.00;100492.41;4195176;28;20235;-66
2022/07/02 09:05:28;;;;;;;13.87;10.60;;;;;;;18.77;100.00;100509.03;4201608;28;20232;-65
2022/07/02 09:07:55;;;;;;;11.60;9.57;;;;;;;18.77;100.00;100519.00;4220090;28;21360;-65
2022/07/02 09:10:23;;;;;;;12.90;9.67;;;;;;;18.77;100.00;100517.13;4201792;28;20241;-67
2022/07/02 09:12:52;;;;;;;16.33;10.23;;;;;;;18.73;100.00;100517.69;4176461;28;24808;-66
2022/07/02 09:15:19;;;;;;;14.73;9.73;;;;;;;18.76;100.00;100522.72;4205316;28;20237;-66
2022/07/02 09:17:45;;;;;;;12.90;9.67;;;;;;;18.81;100.00;100517.59;4254412;28;20928;-63
2022/07/02 09:20:12;;;;;;;14.23;9.40;;;;;;;18.91;100.00;100518.06;4195112;28;20236;-65
2022/07/02 09:22:45;;;;;;;12.23;10.17;;;;;;;18.95;100.00;100522.03;4199826;28;20302;-64
2022/07/02 09:25:14;;;;;;;12.33;8.83;;;;;;;18.98;100.00;100521.63;4191844;28;20259;-70
2022/07/02 09:27:40;;;;;;;10.93;9.40;;;;;;;18.96;100.00;100522.84;4192957;28;20251;-66
2022/07/02 09:30:09;;;;;;;17.90;9.10;;;;;;;19.09;100.00;100528.34;4209154;28;21488;-67
2022/07/02 09:32:41;;;;;;;8.77;7.10;;;;;;;19.04;100.00;100525.41;4197593;28;20250;-67
2022/07/02 09:35:16;;;;;;;7.83;6.57;;;;;;;18.97;100.00;100519.97;4203267;28;21595;-63
2022/07/02 09:37:43;;;;;;;11.57;8.07;;;;;;;19.04;100.00;100527.28;4189356;28;20317;-68
2022/07/02 09:40:10;;;;;;;18.23;10.80;;;;;;;19.17;100.00;100530.91;4208074;28;20312;-70
2022/07/02 09:42:37;;;;;;;11.27;6.63;;;;;;;19.30;100.00;100534.69;4192767;28;20241;-67
2022/07/02 09:45:06;;;;;;;8.83;5.50;;;;;;;19.31;100.00;100531.78;4197997;28;22491;-70
2022/07/02 09:47:37;;;;;;;5.47;3.90;;;;;;;19.36;100.00;100537.44;4225876;28;20228;-66
2022/07/02 09:50:06;;;;;;;3.07;2.77;;;;;;;19.25;100.00;100537.97;4195946;28;22686;-69
2022/07/02 09:52:33;;;;;;;9.03;3.70;;;;;;;19.26;100.00;100528.03;4204638;28;26101;-68
2022/07/02 09:55:00;;;;;;;4.67;3.07;;;;;;;19.53;100.00;100529.81;4205275;28;20346;-67
2022/07/02 09:57:28;;;;;;;4.37;3.10;;;;;;;19.59;100.00;100534.38;4222058;28;20271;-72
2022/07/02 10:00:06;;;;;;;8.30;3.90;;;;;;;19.90;100.00;100525.00;4212696;28;20686;-68
2022/07/02 10:02:36;;;;;;;3.90;2.73;;;;;;;20.31;100.00;100525.88;4227350;28;20337;-67
2022/07/02 10:05:04;;;;;;;6.20;2.97;;;;;;;20.38;100.00;100534.81;4231382;28;20521;-68
2022/07/02 10:07:31;;;;;;;2.67;2.00;;;;;;;20.63;100.00;100540.47;4212355;28;20508;-67
2022/07/02 10:10:02;;;;;;;2.37;1.53;;;;;;;20.55;99.51;100543.34;4198995;28;20236;-69
2022/07/02 10:12:28;;;;;;;3.63;1.87;;;;;;;20.40;99.81;100538.16;4204096;28;20229;-68
2022/07/02 10:14:57;;;;;;;3.90;2.20;;;;;;;20.17;100.00;100547.47;4199194;28;20243;-70
2022/07/02 10:17:24;;;;;;;5.63;1.90;;;;;;;20.09;100.00;100550.38;4191249;28;20248;-70
2022/07/02 10:19:51;;;;;;;6.10;2.37;;;;;;;19.84;100.00;100562.78;4202861;28;22355;-67
2022/07/02 10:22:18;;;;;;;2.97;2.10;;;;;;;19.58;100.00;100558.91;4196884;28;22251;-67
2022/07/02 10:24:46;;;;;;;4.50;2.00;;;;;;;19.47;100.00;100557.59;4183158;28;20232;-67
2022/07/02 10:27:13;;;;;;;6.77;3.10;;;;;;;19.46;100.00;100564.03;4207907;28;20287;-68
2022/07/02 10:29:41;;;;;;;5.87;2.57;;;;;;;19.45;100.00;100559.66;4190039;28;20564;-48
2022/07/02 10:32:32;;;;;;;6.07;3.30;;;;;;;19.30;100.00;100565.19;4227108;28;20244;-46
2022/07/02 10:35:09;;;;;;;4.60;2.47;;;;;;;19.28;100.00;100553.78;4238464;28;20244;-49
2022/07/02 10:37:39;;;;;;;4.80;3.00;;;;;;;19.49;100.00;100560.94;4243187;28;21539;-45
2022/07/02 10:40:07;;;;;;;8.47;3.20;;;;;;;19.56;100.00;100564.50;4214139;28;20336;-43
2022/07/02 10:42:41;;;;;;;6.50;2.73;;;;;;;19.64;100.00;100568.06;4223783;28;22513;-46
2022/07/02 10:45:09;;;;;;;3.80;2.40;;;;;;;19.72;99.70;100571.44;4285112;28;25721;-43
2022/07/02 10:47:35;;;;;;;4.43;1.97;;;;;;;19.81;99.05;100574.81;4209523;28;20221;-42
2022/07/02 10:50:02;;;;;;;6.33;3.30;;;;;;;20.03;97.51;100572.78;4248393;28;20253;-44
2022/07/02 10:52:51;;;;;;;8.07;3.13;;;;;;;20.08;95.02;100583.81;4238191;28;20502;-42
2022/07/02 10:55:30;;;;;;;5.53;2.30;;;;;;;20.08;94.80;100575.72;4229512;28;21716;-44
2022/07/02 10:57:58;;;;;;;7.17;5.40;;;;;;;20.17;94.05;100579.91;4197606;28;20235;-60
2022/07/02 11:00:32;;;;;;;6.77;3.73;;;;;;;20.34;92.03;100576.81;4197478;28;20279;-61
2022/07/02 11:03:18;;;;;;;12.87;3.70;;;;;;;20.28;92.24;100574.94;4208244;28;21266;-51
2022/07/02 11:06:00;;;;;;;3.40;1.93;;;;;;;20.45;91.95;100585.13;4195160;28;20241;-67
2022/07/02 11:08:49;;;;;;;7.83;2.80;;;;;;;20.68;90.86;100586.66;4189986;28;20255;-53
2022/07/02 11:11:22;;;;;;;3.20;1.90;;;;;;;20.46;91.31;100577.84;4252378;28;20231;-54
2022/07/02 11:13:49;;;;;;;3.23;1.70;;;;;;;20.45;90.78;100581.59;4229571;28;22252;-65